sensor_id;sensor_type;location;lat;lon;timestamp;temperature;humidity
48998;DHT22;34807;51.456;7.244;2022-12-18T00:00:40;-2.20;92.00
48998;DHT22;34807;51.456;7.244;2022-12-18T00:03:06;-2.20;92.00
48998;DHT22;34807;51.456;7.244;2022-12-18T00:05:31;-2.20;92.00
48998;DHT22;34807;51.456;7.244;2022-12-18T00:07:57;-2.20;92.00
48998;DHT22;34807;51.456;7.244;2022-12-18T00:10:22;-2.20;92.00
48998;DHT22;34807;51.456;7.244;2022-12-18T00:12:48;-2.20;92.30
48998;DHT22;34807;51.456;7.244;2022-12-18T00:15:13;-2.20;92.00
48998;DHT22;34807;51.456;7.244;2022-12-18T00:17:39;-2.20;92.10
48998;DHT22;34807;51.456;7.244;2022-12-18T00:20:04;-2.20;92.00
48998;DHT22;34807;51.456;7.244;2022-12-18T00:22:30;-2.20;92.00
48998;DHT22;34807;51.456;7.244;2022-12-18T00:24:55;-2.20;92.00
48998;DHT22;34807;51.456;7.244;2022-12-18T00:27:21;-2.20;92.00
48998;DHT22;34807;51.456;7.244;2022-12-18T00:29:47;-2.20;92.00
48998;DHT22;34807;51.456;7.244;2022-12-18T00:32:13;-2.20;92.00
48998;DHT22;34807;51.456;7.244;2022-12-18T00:34:38;-2.20;92.00
48998;DHT22;34807;51.456;7.244;2022-12-18T00:37:04;-2.20;92.00
48998;DHT22;34807;51.456;7.244;2022-12-18T00:39:29;-2.20;92.00
48998;DHT22;34807;51.456;7.244;2022-12-18T00:41:55;-2.20;92.00
48998;DHT22;34807;51.456;7.244;2022-12-18T00:44:39;-2.20;92.00
48998;DHT22;34807;51.456;7.244;2022-12-18T00:47:04;-2.20;92.00
48998;DHT22;34807;51.456;7.244;2022-12-18T00:49:30;-2.20;92.00
48998;DHT22;34807;51.456;7.244;2022-12-18T00:51:55;-2.20;92.00
48998;DHT22;34807;51.456;7.244;2022-12-18T00:54:21;-2.20;92.00
48998;DHT22;34807;51.456;7.244;2022-12-18T00:56:46;-2.20;92.00
48998;DHT22;34807;51.456;7.244;2022-12-18T00:59:12;-2.20;92.00
48998;DHT22;34807;51.456;7.244;2022-12-18T01:01:37;-2.20;92.00
48998;DHT22;34807;51.456;7.244;2022-12-18T01:04:03;-2.20;92.00
48998;DHT22;34807;51.456;7.244;2022-12-18T01:06:28;-2.20;92.00
48998;DHT22;34807;51.456;7.244;2022-12-18T01:08:54;-2.20;92.00
48998;DHT22;34807;51.456;7.244;2022-12-18T01:11:20;-2.20;92.00
48998;DHT22;34807;51.456;7.244;2022-12-18T01:13:46;-2.20;92.00
48998;DHT22;34807;51.456;7.244;2022-12-18T01:16:12;-2.20;92.00
48998;DHT22;34807;51.456;7.244;2022-12-18T01:18:38;-2.30;91.90
48998;DHT22;34807;51.456;7.244;2022-12-18T01:21:11;-2.30;92.00
48998;DHT22;34807;51.456;7.244;2022-12-18T01:23:37;-2.20;92.00
48998;DHT22;34807;51.456;7.244;2022-12-18T01:26:10;-2.20;92.00
48998;DHT22;34807;51.456;7.244;2022-12-18T01:28:36;-2.20;92.00
48998;DHT22;34807;51.456;7.244;2022-12-18T01:31:11;-2.20;92.00
48998;DHT22;34807;51.456;7.244;2022-12-18T01:33:37;-2.20;92.00
48998;DHT22;34807;51.456;7.244;2022-12-18T01:36:02;-2.20;91.90
48998;DHT22;34807;51.456;7.244;2022-12-18T01:38:28;-2.20;91.90
48998;DHT22;34807;51.456;7.244;2022-12-18T01:40:57;-2.20;91.80
48998;DHT22;34807;51.456;7.244;2022-12-18T01:43:39;-2.20;91.80
48998;DHT22;34807;51.456;7.244;2022-12-18T01:46:05;-2.20;91.80
48998;DHT22;34807;51.456;7.244;2022-12-18T01:48:31;-2.20;91.80
48998;DHT22;34807;51.456;7.244;2022-12-18T01:50:56;-2.30;91.80
48998;DHT22;34807;51.456;7.244;2022-12-18T01:53:22;-2.20;91.80
48998;DHT22;34807;51.456;7.244;2022-12-18T01:55:50;-2.30;91.80
48998;DHT22;34807;51.456;7.244;2022-12-18T01:58:16;-2.30;91.80
48998;DHT22;34807;51.456;7.244;2022-12-18T02:00:42;-2.30;91.80
48998;DHT22;34807;51.456;7.244;2022-12-18T02:03:08;-2.30;91.80
48998;DHT22;34807;51.456;7.244;2022-12-18T02:08:22;-2.20;91.80
48998;DHT22;34807;51.456;7.244;2022-12-18T02:18:54;-2.30;91.80
48998;DHT22;34807;51.456;7.244;2022-12-18T02:21:33;-2.30;91.90
48998;DHT22;34807;51.456;7.244;2022-12-18T02:26:51;-2.30;91.90
48998;DHT22;34807;51.456;7.244;2022-12-18T02:29:53;-2.30;91.90
48998;DHT22;34807;51.456;7.244;2022-12-18T02:32:12;-2.30;91.90
48998;DHT22;34807;51.456;7.244;2022-12-18T02:34:39;-2.30;91.90
48998;DHT22;34807;51.456;7.244;2022-12-18T02:37:06;-2.30;91.90
48998;DHT22;34807;51.456;7.244;2022-12-18T02:39:33;-2.30;91.90
48998;DHT22;34807;51.456;7.244;2022-12-18T02:41:59;-2.30;91.90
48998;DHT22;34807;51.456;7.244;2022-12-18T02:44:26;-2.30;91.90
48998;DHT22;34807;51.456;7.244;2022-12-18T02:46:52;-2.30;91.90
48998;DHT22;34807;51.456;7.244;2022-12-18T03:00:02;-2.30;91.90
48998;DHT22;34807;51.456;7.244;2022-12-18T03:02:44;-2.30;91.90
48998;DHT22;34807;51.456;7.244;2022-12-18T03:07:38;-2.30;91.90
48998;DHT22;34807;51.456;7.244;2022-12-18T03:10:05;-2.30;92.00
48998;DHT22;34807;51.456;7.244;2022-12-18T03:12:35;-2.30;92.00
48998;DHT22;34807;51.456;7.244;2022-12-18T03:15:03;-2.30;92.00
48998;DHT22;34807;51.456;7.244;2022-12-18T03:17:30;-2.30;91.90
48998;DHT22;34807;51.456;7.244;2022-12-18T03:19:56;-2.30;91.90
48998;DHT22;34807;51.456;7.244;2022-12-18T03:22:23;-2.30;91.90
48998;DHT22;34807;51.456;7.244;2022-12-18T03:24:49;-2.30;91.90
48998;DHT22;34807;51.456;7.244;2022-12-18T03:27:17;-2.20;91.90
48998;DHT22;34807;51.456;7.244;2022-12-18T03:29:44;-2.20;91.90
48998;DHT22;34807;51.456;7.244;2022-12-18T03:32:12;-2.30;91.90
48998;DHT22;34807;51.456;7.244;2022-12-18T03:34:40;-2.30;92.20
48998;DHT22;34807;51.456;7.244;2022-12-18T03:37:07;-2.30;92.00
48998;DHT22;34807;51.456;7.244;2022-12-18T03:39:34;-2.30;91.90
48998;DHT22;34807;51.456;7.244;2022-12-18T03:47:04;-2.30;91.90
48998;DHT22;34807;51.456;7.244;2022-12-18T03:49:42;-2.30;92.00
48998;DHT22;34807;51.456;7.244;2022-12-18T03:52:23;-2.30;91.90
48998;DHT22;34807;51.456;7.244;2022-12-18T03:54:49;-2.30;91.90
48998;DHT22;34807;51.456;7.244;2022-12-18T03:57:19;-2.30;92.00
48998;DHT22;34807;51.456;7.244;2022-12-18T03:59:45;-2.30;91.90
48998;DHT22;34807;51.456;7.244;2022-12-18T04:02:12;-2.30;91.90
48998;DHT22;34807;51.456;7.244;2022-12-18T04:04:38;-2.30;91.90
48998;DHT22;34807;51.456;7.244;2022-12-18T04:07:05;-2.30;91.90
48998;DHT22;34807;51.456;7.244;2022-12-18T04:09:31;-2.30;91.90
48998;DHT22;34807;51.456;7.244;2022-12-18T04:11:57;-2.30;91.90
48998;DHT22;34807;51.456;7.244;2022-12-18T04:14:22;-2.30;91.90
48998;DHT22;34807;51.456;7.244;2022-12-18T04:16:48;-2.30;91.90
48998;DHT22;34807;51.456;7.244;2022-12-18T04:19:13;-2.30;91.90
48998;DHT22;34807;51.456;7.244;2022-12-18T04:21:39;-2.30;91.90
48998;DHT22;34807;51.456;7.244;2022-12-18T04:24:04;-2.30;91.90
48998;DHT22;34807;51.456;7.244;2022-12-18T04:26:30;-2.30;92.00
48998;DHT22;34807;51.456;7.244;2022-12-18T04:28:55;-2.30;92.00
48998;DHT22;34807;51.456;7.244;2022-12-18T04:31:21;-2.30;92.00
48998;DHT22;34807;51.456;7.244;2022-12-18T04:33:47;-2.30;91.90
48998;DHT22;34807;51.456;7.244;2022-12-18T04:36:12;-2.30;91.90
48998;DHT22;34807;51.456;7.244;2022-12-18T04:38:38;-2.30;92.00
48998;DHT22;34807;51.456;7.244;2022-12-18T04:41:03;-2.30;91.90
48998;DHT22;34807;51.456;7.244;2022-12-18T04:43:29;-2.30;91.90
48998;DHT22;34807;51.456;7.244;2022-12-18T04:46:00;-2.30;91.90
48998;DHT22;34807;51.456;7.244;2022-12-18T04:48:26;-2.30;91.90
48998;DHT22;34807;51.456;7.244;2022-12-18T04:50:52;-2.30;91.90
48998;DHT22;34807;51.456;7.244;2022-12-18T04:53:17;-2.30;91.90
48998;DHT22;34807;51.456;7.244;2022-12-18T04:55:43;-2.30;91.90
48998;DHT22;34807;51.456;7.244;2022-12-18T04:58:08;-2.30;91.90
48998;DHT22;34807;51.456;7.244;2022-12-18T05:00:34;-2.30;92.00
48998;DHT22;34807;51.456;7.244;2022-12-18T05:03:00;-2.30;91.90
48998;DHT22;34807;51.456;7.244;2022-12-18T05:05:26;-2.30;92.00
48998;DHT22;34807;51.456;7.244;2022-12-18T05:07:51;-2.30;92.00
48998;DHT22;34807;51.456;7.244;2022-12-18T05:10:16;-2.30;91.90
48998;DHT22;34807;51.456;7.244;2022-12-18T05:12:42;-2.30;91.90
48998;DHT22;34807;51.456;7.244;2022-12-18T05:15:29;-2.30;91.80
48998;DHT22;34807;51.456;7.244;2022-12-18T05:17:55;-2.30;91.90
48998;DHT22;34807;51.456;7.244;2022-12-18T05:20:20;-2.30;91.90
48998;DHT22;34807;51.456;7.244;2022-12-18T05:22:46;-2.30;91.90
48998;DHT22;34807;51.456;7.244;2022-12-18T05:25:11;-2.30;91.90
48998;DHT22;34807;51.456;7.244;2022-12-18T05:27:37;-2.30;91.90
48998;DHT22;34807;51.456;7.244;2022-12-18T05:30:02;-2.30;91.80
48998;DHT22;34807;51.456;7.244;2022-12-18T05:32:28;-2.30;91.80
48998;DHT22;34807;51.456;7.244;2022-12-18T05:34:53;-2.30;91.80
48998;DHT22;34807;51.456;7.244;2022-12-18T05:37:19;-2.30;91.90
48998;DHT22;34807;51.456;7.244;2022-12-18T05:39:44;-2.30;91.90
48998;DHT22;34807;51.456;7.244;2022-12-18T05:42:10;-2.30;91.80
48998;DHT22;34807;51.456;7.244;2022-12-18T05:44:35;-2.30;91.80
48998;DHT22;34807;51.456;7.244;2022-12-18T05:47:01;-2.30;91.80
48998;DHT22;34807;51.456;7.244;2022-12-18T05:49:26;-2.30;91.80
48998;DHT22;34807;51.456;7.244;2022-12-18T05:51:52;-2.40;91.80
48998;DHT22;34807;51.456;7.244;2022-12-18T05:54:17;-2.40;91.80
48998;DHT22;34807;51.456;7.244;2022-12-18T05:56:43;-2.40;91.80
48998;DHT22;34807;51.456;7.244;2022-12-18T05:59:08;-2.40;91.80
48998;DHT22;34807;51.456;7.244;2022-12-18T06:01:34;-2.40;91.80
48998;DHT22;34807;51.456;7.244;2022-12-18T06:03:59;-2.40;91.80
48998;DHT22;34807;51.456;7.244;2022-12-18T06:06:26;-2.40;91.80
48998;DHT22;34807;51.456;7.244;2022-12-18T06:08:52;-2.40;91.80
48998;DHT22;34807;51.456;7.244;2022-12-18T06:11:18;-2.40;91.70
48998;DHT22;34807;51.456;7.244;2022-12-18T06:13:44;-2.40;91.70
48998;DHT22;34807;51.456;7.244;2022-12-18T06:16:09;-2.40;91.70
48998;DHT22;34807;51.456;7.244;2022-12-18T06:18:35;-2.50;91.70
48998;DHT22;34807;51.456;7.244;2022-12-18T06:21:01;-2.50;91.70
48998;DHT22;34807;51.456;7.244;2022-12-18T06:23:27;-2.50;91.70
48998;DHT22;34807;51.456;7.244;2022-12-18T06:25:52;-2.50;91.70
48998;DHT22;34807;51.456;7.244;2022-12-18T06:28:18;-2.50;91.70
48998;DHT22;34807;51.456;7.244;2022-12-18T06:30:44;-2.50;91.60
48998;DHT22;34807;51.456;7.244;2022-12-18T06:33:09;-2.50;91.70
48998;DHT22;34807;51.456;7.244;2022-12-18T06:35:35;-2.50;91.60
48998;DHT22;34807;51.456;7.244;2022-12-18T06:38:01;-2.50;91.60
48998;DHT22;34807;51.456;7.244;2022-12-18T06:40:26;-2.50;91.70
48998;DHT22;34807;51.456;7.244;2022-12-18T06:42:51;-2.50;91.60
48998;DHT22;34807;51.456;7.244;2022-12-18T06:45:17;-2.60;91.60
48998;DHT22;34807;51.456;7.244;2022-12-18T06:47:42;-2.60;91.60
48998;DHT22;34807;51.456;7.244;2022-12-18T06:50:08;-2.60;91.60
48998;DHT22;34807;51.456;7.244;2022-12-18T06:52:34;-2.60;91.60
48998;DHT22;34807;51.456;7.244;2022-12-18T06:54:59;-2.60;91.60
48998;DHT22;34807;51.456;7.244;2022-12-18T06:57:25;-2.60;91.60
48998;DHT22;34807;51.456;7.244;2022-12-18T06:59:50;-2.60;91.60
48998;DHT22;34807;51.456;7.244;2022-12-18T07:02:16;-2.60;91.50
48998;DHT22;34807;51.456;7.244;2022-12-18T07:04:41;-2.60;91.50
48998;DHT22;34807;51.456;7.244;2022-12-18T07:07:07;-2.60;91.50
48998;DHT22;34807;51.456;7.244;2022-12-18T07:09:32;-2.60;91.50
48998;DHT22;34807;51.456;7.244;2022-12-18T07:11:58;-2.60;91.50
48998;DHT22;34807;51.456;7.244;2022-12-18T07:14:23;-2.70;91.40
48998;DHT22;34807;51.456;7.244;2022-12-18T07:16:49;-2.70;91.40
48998;DHT22;34807;51.456;7.244;2022-12-18T07:19:14;-2.70;91.40
48998;DHT22;34807;51.456;7.244;2022-12-18T07:21:40;-2.70;91.40
48998;DHT22;34807;51.456;7.244;2022-12-18T07:24:05;-2.70;91.40
48998;DHT22;34807;51.456;7.244;2022-12-18T07:26:31;-2.70;91.40
48998;DHT22;34807;51.456;7.244;2022-12-18T07:28:56;-2.70;91.30
48998;DHT22;34807;51.456;7.244;2022-12-18T07:31:23;-2.70;91.30
48998;DHT22;34807;51.456;7.244;2022-12-18T07:33:49;-2.70;91.20
48998;DHT22;34807;51.456;7.244;2022-12-18T07:36:15;-2.70;91.20
48998;DHT22;34807;51.456;7.244;2022-12-18T07:38:41;-2.80;91.20
48998;DHT22;34807;51.456;7.244;2022-12-18T07:43:32;-2.80;91.10
48998;DHT22;34807;51.456;7.244;2022-12-18T07:45:57;-2.80;91.10
48998;DHT22;34807;51.456;7.244;2022-12-18T07:48:23;-2.80;91.00
48998;DHT22;34807;51.456;7.244;2022-12-18T07:50:48;-2.80;91.00
48998;DHT22;34807;51.456;7.244;2022-12-18T07:53:14;-2.80;91.00
48998;DHT22;34807;51.456;7.244;2022-12-18T07:55:40;-2.80;90.90
48998;DHT22;34807;51.456;7.244;2022-12-18T07:58:06;-2.80;90.90
48998;DHT22;34807;51.456;7.244;2022-12-18T08:00:32;-2.80;91.00
48998;DHT22;34807;51.456;7.244;2022-12-18T08:02:58;-2.80;90.90
48998;DHT22;34807;51.456;7.244;2022-12-18T08:05:23;-2.80;90.90
48998;DHT22;34807;51.456;7.244;2022-12-18T08:07:49;-2.80;90.90
48998;DHT22;34807;51.456;7.244;2022-12-18T08:10:15;-2.80;90.90
48998;DHT22;34807;51.456;7.244;2022-12-18T08:12:40;-2.80;90.90
48998;DHT22;34807;51.456;7.244;2022-12-18T08:15:06;-2.80;90.80
48998;DHT22;34807;51.456;7.244;2022-12-18T08:17:32;-2.80;90.80
48998;DHT22;34807;51.456;7.244;2022-12-18T08:19:57;-2.80;90.80
48998;DHT22;34807;51.456;7.244;2022-12-18T08:22:23;-2.80;90.80
48998;DHT22;34807;51.456;7.244;2022-12-18T08:24:48;-2.80;90.80
48998;DHT22;34807;51.456;7.244;2022-12-18T08:27:14;-2.70;90.80
48998;DHT22;34807;51.456;7.244;2022-12-18T08:29:39;-2.80;90.80
48998;DHT22;34807;51.456;7.244;2022-12-18T08:32:05;-2.70;90.80
48998;DHT22;34807;51.456;7.244;2022-12-18T08:34:30;-2.70;90.80
48998;DHT22;34807;51.456;7.244;2022-12-18T08:36:56;-2.70;90.80
48998;DHT22;34807;51.456;7.244;2022-12-18T08:39:21;-2.70;90.70
48998;DHT22;34807;51.456;7.244;2022-12-18T08:41:47;-2.60;90.70
48998;DHT22;34807;51.456;7.244;2022-12-18T08:44:32;-2.60;90.70
48998;DHT22;34807;51.456;7.244;2022-12-18T08:47:05;-2.60;90.70
48998;DHT22;34807;51.456;7.244;2022-12-18T08:49:30;-2.60;90.70
48998;DHT22;34807;51.456;7.244;2022-12-18T08:51:56;-2.60;90.70
48998;DHT22;34807;51.456;7.244;2022-12-18T08:54:25;-2.60;90.70
48998;DHT22;34807;51.456;7.244;2022-12-18T08:56:50;-2.60;90.60
48998;DHT22;34807;51.456;7.244;2022-12-18T08:59:16;-2.50;90.70
48998;DHT22;34807;51.456;7.244;2022-12-18T09:01:42;-2.60;90.60
48998;DHT22;34807;51.456;7.244;2022-12-18T09:04:08;-2.50;90.70
48998;DHT22;34807;51.456;7.244;2022-12-18T09:06:34;-2.50;90.70
48998;DHT22;34807;51.456;7.244;2022-12-18T09:08:59;-2.50;90.60
48998;DHT22;34807;51.456;7.244;2022-12-18T09:11:26;-2.50;90.70
48998;DHT22;34807;51.456;7.244;2022-12-18T09:13:52;-2.50;90.80
48998;DHT22;34807;51.456;7.244;2022-12-18T09:16:19;-2.50;90.80
48998;DHT22;34807;51.456;7.244;2022-12-18T09:18:45;-2.50;90.90
48998;DHT22;34807;51.456;7.244;2022-12-18T09:21:11;-2.50;90.90
48998;DHT22;34807;51.456;7.244;2022-12-18T09:23:37;-2.60;91.00
48998;DHT22;34807;51.456;7.244;2022-12-18T09:26:03;-2.50;91.00
48998;DHT22;34807;51.456;7.244;2022-12-18T09:28:28;-2.50;91.00
48998;DHT22;34807;51.456;7.244;2022-12-18T09:30:54;-2.50;91.00
48998;DHT22;34807;51.456;7.244;2022-12-18T09:33:19;-2.40;91.00
48998;DHT22;34807;51.456;7.244;2022-12-18T09:35:45;-2.40;91.00
48998;DHT22;34807;51.456;7.244;2022-12-18T09:38:12;-2.40;91.10
48998;DHT22;34807;51.456;7.244;2022-12-18T09:40:42;-2.40;91.10
48998;DHT22;34807;51.456;7.244;2022-12-18T09:43:09;-2.30;91.20
48998;DHT22;34807;51.456;7.244;2022-12-18T09:45:39;-2.30;91.10
48998;DHT22;34807;51.456;7.244;2022-12-18T09:48:06;-2.20;91.10
48998;DHT22;34807;51.456;7.244;2022-12-18T09:50:36;-2.20;91.10
48998;DHT22;34807;51.456;7.244;2022-12-18T09:53:05;-2.10;91.00
48998;DHT22;34807;51.456;7.244;2022-12-18T09:55:36;-2.10;91.00
48998;DHT22;34807;51.456;7.244;2022-12-18T09:58:06;-2.00;90.90
48998;DHT22;34807;51.456;7.244;2022-12-18T10:00:33;-2.00;91.00
48998;DHT22;34807;51.456;7.244;2022-12-18T10:03:16;-1.90;90.90
48998;DHT22;34807;51.456;7.244;2022-12-18T10:08:33;-1.90;91.10
48998;DHT22;34807;51.456;7.244;2022-12-18T10:11:01;-1.90;91.00
48998;DHT22;34807;51.456;7.244;2022-12-18T10:13:38;-1.80;90.80
48998;DHT22;34807;51.456;7.244;2022-12-18T10:21:10;-1.60;90.80
48998;DHT22;34807;51.456;7.244;2022-12-18T10:26:04;-1.60;90.70
48998;DHT22;34807;51.456;7.244;2022-12-18T10:28:30;-1.60;90.70
48998;DHT22;34807;51.456;7.244;2022-12-18T10:30:56;-1.50;90.70
48998;DHT22;34807;51.456;7.244;2022-12-18T10:33:23;-1.40;90.80
48998;DHT22;34807;51.456;7.244;2022-12-18T10:35:51;-1.40;90.80
48998;DHT22;34807;51.456;7.244;2022-12-18T10:43:22;-1.30;90.70
48998;DHT22;34807;51.456;7.244;2022-12-18T10:48:22;-1.20;90.80
48998;DHT22;34807;51.456;7.244;2022-12-18T10:50:49;-1.10;90.70
48998;DHT22;34807;51.456;7.244;2022-12-18T10:53:18;-1.10;90.70
48998;DHT22;34807;51.456;7.244;2022-12-18T10:55:44;-1.10;90.70
48998;DHT22;34807;51.456;7.244;2022-12-18T11:03:42;-1.00;90.60
48998;DHT22;34807;51.456;7.244;2022-12-18T11:06:12;-0.90;90.60
48998;DHT22;34807;51.456;7.244;2022-12-18T11:08:38;-0.90;90.60
48998;DHT22;34807;51.456;7.244;2022-12-18T11:11:04;-0.90;90.60
48998;DHT22;34807;51.456;7.244;2022-12-18T11:13:31;-0.80;90.60
48998;DHT22;34807;51.456;7.244;2022-12-18T11:15:57;-0.80;90.60
48998;DHT22;34807;51.456;7.244;2022-12-18T11:18:33;-0.70;90.60
48998;DHT22;34807;51.456;7.244;2022-12-18T11:21:00;-0.80;90.70
48998;DHT22;34807;51.456;7.244;2022-12-18T11:23:26;-0.70;90.70
48998;DHT22;34807;51.456;7.244;2022-12-18T11:25:56;-0.70;90.70
48998;DHT22;34807;51.456;7.244;2022-12-18T11:33:38;-0.50;90.80
48998;DHT22;34807;51.456;7.244;2022-12-18T11:36:04;-0.50;90.80
48998;DHT22;34807;51.456;7.244;2022-12-18T11:38:36;-0.50;90.70
48998;DHT22;34807;51.456;7.244;2022-12-18T11:41:07;-0.50;90.70
48998;DHT22;34807;51.456;7.244;2022-12-18T11:43:47;-0.40;90.80
48998;DHT22;34807;51.456;7.244;2022-12-18T11:46:19;-0.40;90.70
48998;DHT22;34807;51.456;7.244;2022-12-18T11:48:49;-0.40;90.60
48998;DHT22;34807;51.456;7.244;2022-12-18T11:51:26;-0.30;90.70
48998;DHT22;34807;51.456;7.244;2022-12-18T11:53:53;-0.30;90.70
48998;DHT22;34807;51.456;7.244;2022-12-18T12:09:57;-0.10;90.60
48998;DHT22;34807;51.456;7.244;2022-12-18T12:12:02;-0.10;90.60
48998;DHT22;34807;51.456;7.244;2022-12-18T12:14:38;-0.10;90.70
48998;DHT22;34807;51.456;7.244;2022-12-18T12:20:05;-0.10;90.60
48998;DHT22;34807;51.456;7.244;2022-12-18T12:25:18;0.00;90.70
48998;DHT22;34807;51.456;7.244;2022-12-18T12:33:24;0.10;90.70
48998;DHT22;34807;51.456;7.244;2022-12-18T12:41:00;0.10;90.70
48998;DHT22;34807;51.456;7.244;2022-12-18T12:43:38;0.10;90.70
48998;DHT22;34807;51.456;7.244;2022-12-18T12:46:10;0.10;90.70
48998;DHT22;34807;51.456;7.244;2022-12-18T12:48:38;0.20;90.70
48998;DHT22;34807;51.456;7.244;2022-12-18T12:53:40;0.20;90.60
48998;DHT22;34807;51.456;7.244;2022-12-18T12:56:06;0.20;90.70
48998;DHT22;34807;51.456;7.244;2022-12-18T12:58:36;0.20;90.80
48998;DHT22;34807;51.456;7.244;2022-12-18T13:06:19;0.30;90.70
48998;DHT22;34807;51.456;7.244;2022-12-18T13:08:58;0.30;90.70
48998;DHT22;34807;51.456;7.244;2022-12-18T13:11:29;0.30;90.70
48998;DHT22;34807;51.456;7.244;2022-12-18T13:19:49;0.30;90.80
48998;DHT22;34807;51.456;7.244;2022-12-18T13:22:22;0.30;90.80
48998;DHT22;34807;51.456;7.244;2022-12-18T13:24:48;0.30;90.90
48998;DHT22;34807;51.456;7.244;2022-12-18T13:29:57;0.30;90.90
48998;DHT22;34807;51.456;7.244;2022-12-18T13:32:24;0.30;90.90
48998;DHT22;34807;51.456;7.244;2022-12-18T13:37:41;0.30;90.90
48998;DHT22;34807;51.456;7.244;2022-12-18T13:42:55;0.30;91.00
48998;DHT22;34807;51.456;7.244;2022-12-18T13:45:43;0.30;90.90
48998;DHT22;34807;51.456;7.244;2022-12-18T13:48:21;0.40;91.00
48998;DHT22;34807;51.456;7.244;2022-12-18T13:50:57;0.40;91.00
48998;DHT22;34807;51.456;7.244;2022-12-18T13:53:28;0.40;91.00
48998;DHT22;34807;51.456;7.244;2022-12-18T13:55:54;0.40;91.00
48998;DHT22;34807;51.456;7.244;2022-12-18T13:58:20;0.40;91.00
48998;DHT22;34807;51.456;7.244;2022-12-18T14:00:46;0.40;91.00
48998;DHT22;34807;51.456;7.244;2022-12-18T14:03:16;0.30;91.00
48998;DHT22;34807;51.456;7.244;2022-12-18T14:05:43;0.40;91.00
48998;DHT22;34807;51.456;7.244;2022-12-18T14:08:13;0.40;91.10
48998;DHT22;34807;51.456;7.244;2022-12-18T14:10:43;0.40;91.00
48998;DHT22;34807;51.456;7.244;2022-12-18T14:13:09;0.40;91.00
48998;DHT22;34807;51.456;7.244;2022-12-18T14:15:38;0.40;91.10
48998;DHT22;34807;51.456;7.244;2022-12-18T14:20:43;0.40;91.10
48998;DHT22;34807;51.456;7.244;2022-12-18T14:23:25;0.40;91.10
48998;DHT22;34807;51.456;7.244;2022-12-18T14:25:51;0.40;91.20
48998;DHT22;34807;51.456;7.244;2022-12-18T14:28:16;0.40;91.10
48998;DHT22;34807;51.456;7.244;2022-12-18T14:30:43;0.40;91.10
48998;DHT22;34807;51.456;7.244;2022-12-18T14:33:11;0.40;91.10
48998;DHT22;34807;51.456;7.244;2022-12-18T14:35:37;0.40;91.20
48998;DHT22;34807;51.456;7.244;2022-12-18T14:40:41;0.40;91.10
48998;DHT22;34807;51.456;7.244;2022-12-18T14:43:09;0.40;91.20
48998;DHT22;34807;51.456;7.244;2022-12-18T14:45:41;0.40;91.10
48998;DHT22;34807;51.456;7.244;2022-12-18T14:48:08;0.40;91.20
48998;DHT22;34807;51.456;7.244;2022-12-18T14:50:34;0.40;91.20
48998;DHT22;34807;51.456;7.244;2022-12-18T14:53:00;0.40;91.20
48998;DHT22;34807;51.456;7.244;2022-12-18T14:55:25;0.40;91.10
48998;DHT22;34807;51.456;7.244;2022-12-18T14:57:51;0.40;91.10
48998;DHT22;34807;51.456;7.244;2022-12-18T15:00:19;0.40;91.10
48998;DHT22;34807;51.456;7.244;2022-12-18T15:02:54;0.40;91.10
48998;DHT22;34807;51.456;7.244;2022-12-18T15:05:27;0.40;91.00
48998;DHT22;34807;51.456;7.244;2022-12-18T15:07:54;0.40;91.00
48998;DHT22;34807;51.456;7.244;2022-12-18T15:10:20;0.40;91.10
48998;DHT22;34807;51.456;7.244;2022-12-18T15:17:57;0.40;91.00
48998;DHT22;34807;51.456;7.244;2022-12-18T15:20:22;0.40;91.10
48998;DHT22;34807;51.456;7.244;2022-12-18T15:22:48;0.30;91.10
48998;DHT22;34807;51.456;7.244;2022-12-18T15:25:47;0.40;90.90
48998;DHT22;34807;51.456;7.244;2022-12-18T15:31:20;0.40;91.10
48998;DHT22;34807;51.456;7.244;2022-12-18T15:36:18;0.30;91.10
48998;DHT22;34807;51.456;7.244;2022-12-18T15:38:48;0.40;91.10
48998;DHT22;34807;51.456;7.244;2022-12-18T15:41:14;0.40;91.20
48998;DHT22;34807;51.456;7.244;2022-12-18T15:43:40;0.30;91.10
48998;DHT22;34807;51.456;7.244;2022-12-18T15:46:11;0.30;91.10
48998;DHT22;34807;51.456;7.244;2022-12-18T15:48:58;0.30;91.10
48998;DHT22;34807;51.456;7.244;2022-12-18T15:51:23;0.30;91.20
48998;DHT22;34807;51.456;7.244;2022-12-18T15:53:50;0.30;91.00
48998;DHT22;34807;51.456;7.244;2022-12-18T15:56:16;0.40;91.10
48998;DHT22;34807;51.456;7.244;2022-12-18T15:59:01;0.30;91.20
48998;DHT22;34807;51.456;7.244;2022-12-18T16:01:28;0.30;91.00
48998;DHT22;34807;51.456;7.244;2022-12-18T16:03:54;0.30;91.10
48998;DHT22;34807;51.456;7.244;2022-12-18T16:06:20;0.30;91.00
48998;DHT22;34807;51.456;7.244;2022-12-18T16:08:45;0.40;91.00
48998;DHT22;34807;51.456;7.244;2022-12-18T16:11:24;0.30;91.00
48998;DHT22;34807;51.456;7.244;2022-12-18T16:16:40;0.30;91.10
48998;DHT22;34807;51.456;7.244;2022-12-18T16:19:05;0.30;91.00
48998;DHT22;34807;51.456;7.244;2022-12-18T16:21:31;0.30;91.00
48998;DHT22;34807;51.456;7.244;2022-12-18T16:23:56;0.30;91.10
48998;DHT22;34807;51.456;7.244;2022-12-18T16:26:22;0.30;91.10
48998;DHT22;34807;51.456;7.244;2022-12-18T16:28:47;0.30;91.10
48998;DHT22;34807;51.456;7.244;2022-12-18T16:31:13;0.30;91.10
48998;DHT22;34807;51.456;7.244;2022-12-18T16:33:38;0.30;91.00
48998;DHT22;34807;51.456;7.244;2022-12-18T16:36:04;0.30;91.10
48998;DHT22;34807;51.456;7.244;2022-12-18T16:38:29;0.30;91.20
48998;DHT22;34807;51.456;7.244;2022-12-18T16:40:54;0.30;91.10
48998;DHT22;34807;51.456;7.244;2022-12-18T16:43:38;0.30;91.20
48998;DHT22;34807;51.456;7.244;2022-12-18T16:46:04;0.30;91.10
48998;DHT22;34807;51.456;7.244;2022-12-18T16:48:29;0.30;91.10
48998;DHT22;34807;51.456;7.244;2022-12-18T16:51:04;0.30;91.00
48998;DHT22;34807;51.456;7.244;2022-12-18T16:53:30;0.30;91.00
48998;DHT22;34807;51.456;7.244;2022-12-18T16:55:56;0.30;91.10
48998;DHT22;34807;51.456;7.244;2022-12-18T16:58:22;0.30;91.10
48998;DHT22;34807;51.456;7.244;2022-12-18T17:00:47;0.30;91.30
48998;DHT22;34807;51.456;7.244;2022-12-18T17:03:13;0.30;91.20
48998;DHT22;34807;51.456;7.244;2022-12-18T17:05:38;0.30;91.20
48998;DHT22;34807;51.456;7.244;2022-12-18T17:08:04;0.30;91.30
48998;DHT22;34807;51.456;7.244;2022-12-18T17:10:30;0.30;91.30
48998;DHT22;34807;51.456;7.244;2022-12-18T17:12:55;0.30;91.40
48998;DHT22;34807;51.456;7.244;2022-12-18T17:15:21;0.30;91.40
48998;DHT22;34807;51.456;7.244;2022-12-18T17:17:47;0.30;91.50
48998;DHT22;34807;51.456;7.244;2022-12-18T17:20:13;0.30;91.40
48998;DHT22;34807;51.456;7.244;2022-12-18T17:22:38;0.30;91.50
48998;DHT22;34807;51.456;7.244;2022-12-18T17:25:04;0.30;91.50
48998;DHT22;34807;51.456;7.244;2022-12-18T17:27:29;0.30;91.60
48998;DHT22;34807;51.456;7.244;2022-12-18T17:29:55;0.30;91.60
48998;DHT22;34807;51.456;7.244;2022-12-18T17:32:20;0.30;91.60
48998;DHT22;34807;51.456;7.244;2022-12-18T17:34:46;0.30;91.50
48998;DHT22;34807;51.456;7.244;2022-12-18T17:37:12;0.30;91.50
48998;DHT22;34807;51.456;7.244;2022-12-18T17:39:37;0.30;91.60
48998;DHT22;34807;51.456;7.244;2022-12-18T17:42:03;0.30;91.60
48998;DHT22;34807;51.456;7.244;2022-12-18T17:44:29;0.30;91.70
48998;DHT22;34807;51.456;7.244;2022-12-18T17:46:54;0.30;91.70
48998;DHT22;34807;51.456;7.244;2022-12-18T17:49:20;0.30;91.70